createdAt,value
2017-06-26T00:00:29.148Z,78.20
2017-06-26T00:02:56.721Z,78.30
2017-06-26T00:05:24.268Z,78.40
2017-06-26T00:07:51.806Z,78.40
2017-06-26T00:10:19.358Z,78.40
2017-06-26T00:12:46.887Z,78.40
2017-06-26T00:15:14.446Z,78.60
2017-06-26T00:17:41.993Z,78.70
2017-06-26T00:20:09.550Z,78.80
2017-06-26T00:22:37.080Z,78.80
2017-06-26T00:25:04.618Z,78.80
2017-06-26T00:27:32.166Z,79.00
2017-06-26T00:29:59.705Z,79.00
2017-06-26T00:32:27.259Z,78.90
2017-06-26T00:34:54.804Z,78.90
2017-06-26T00:37:22.365Z,78.80
2017-06-26T00:39:49.903Z,79.20
2017-06-26T00:42:17.461Z,79.10
2017-06-26T00:44:45.006Z,79.10
2017-06-26T00:47:12.538Z,79.10
2017-06-26T00:49:40.098Z,79.00
2017-06-26T00:52:08.027Z,79.10
2017-06-26T00:54:35.570Z,79.10
2017-06-26T00:57:03.109Z,79.20
2017-06-26T00:59:30.709Z,79.20
2017-06-26T01:01:58.244Z,79.10
2017-06-26T01:04:25.772Z,79.20
2017-06-26T01:06:53.324Z,78.90
2017-06-26T01:09:20.865Z,79.30
2017-06-26T01:11:48.416Z,79.20
2017-06-26T01:14:15.942Z,79.50
2017-06-26T01:16:43.497Z,79.30
2017-06-26T01:19:11.041Z,78.90
2017-06-26T01:21:38.591Z,78.70
2017-06-26T01:24:06.125Z,78.90
2017-06-26T01:26:33.665Z,78.60
2017-06-26T01:29:01.227Z,78.30
2017-06-26T01:31:28.769Z,78.60
2017-06-26T01:33:56.334Z,78.50
2017-06-26T01:36:23.873Z,78.50
2017-06-26T01:38:51.420Z,78.60
2017-06-26T01:41:18.966Z,78.70
2017-06-26T01:43:46.527Z,78.90
2017-06-26T01:46:14.076Z,79.10
2017-06-26T01:48:41.609Z,79.30
2017-06-26T01:51:09.561Z,79.60
2017-06-26T01:53:37.092Z,79.60
2017-06-26T01:56:04.663Z,79.90
2017-06-26T01:58:32.568Z,79.80
2017-06-26T02:01:01.206Z,80.00
2017-06-26T02:03:28.745Z,79.90
2017-06-26T02:05:56.301Z,80.00
2017-06-26T02:08:23.829Z,80.20
2017-06-26T02:10:51.368Z,80.50
2017-06-26T02:13:18.908Z,80.60
2017-06-26T02:15:46.440Z,80.60
2017-06-26T02:18:13.999Z,80.80
2017-06-26T02:20:41.524Z,80.90
2017-06-26T02:23:09.101Z,80.90
2017-06-26T02:25:36.662Z,80.60
2017-06-26T02:28:04.217Z,80.80
2017-06-26T02:30:31.757Z,81.00
2017-06-26T02:32:59.301Z,81.20
2017-06-26T02:35:27.230Z,80.80
2017-06-26T02:37:54.762Z,80.80
2017-06-26T02:40:22.412Z,81.20
2017-06-26T02:42:49.944Z,81.20
2017-06-26T02:45:17.896Z,81.00
2017-06-26T02:47:45.432Z,81.10
2017-06-26T02:50:12.997Z,81.20
2017-06-26T02:52:40.550Z,81.30
2017-06-26T02:55:08.089Z,81.00
2017-06-26T02:57:35.663Z,80.90
2017-06-26T03:00:03.197Z,81.00
2017-06-26T03:02:30.753Z,80.90
2017-06-26T03:04:58.289Z,81.20
2017-06-26T03:07:26.245Z,81.40
2017-06-26T03:09:53.777Z,81.30
2017-06-26T03:12:21.329Z,81.30
2017-06-26T03:14:48.869Z,81.50
2017-06-26T03:17:16.416Z,81.50
2017-06-26T03:19:43.954Z,81.50
2017-06-26T03:22:11.493Z,81.30
2017-06-26T03:24:39.426Z,81.60
2017-06-26T03:27:06.973Z,81.60
2017-06-26T03:29:34.527Z,81.70
2017-06-26T03:32:02.057Z,81.50
2017-06-26T03:34:29.657Z,81.40
2017-06-26T03:36:57.193Z,81.30
2017-06-26T03:39:24.749Z,81.50
2017-06-26T03:41:52.264Z,81.60
2017-06-26T03:44:19.817Z,81.90
2017-06-26T03:46:47.350Z,82.10
2017-06-26T03:49:14.880Z,81.80
2017-06-26T03:51:42.425Z,82.00
2017-06-26T03:54:09.976Z,81.90
2017-06-26T03:56:37.516Z,82.10
2017-06-26T03:59:05.039Z,81.90
2017-06-26T04:01:32.589Z,82.00
2017-06-26T04:04:00.119Z,82.30
2017-06-26T04:06:27.651Z,82.10
2017-06-26T04:08:55.600Z,82.50
2017-06-26T04:11:23.142Z,82.50
2017-06-26T04:13:50.692Z,82.70
2017-06-26T04:16:18.211Z,82.50
2017-06-26T04:18:45.758Z,82.80
2017-06-26T04:21:13.295Z,82.90
2017-06-26T04:23:40.830Z,82.80
2017-06-26T04:26:08.394Z,82.90
2017-06-26T04:28:35.919Z,83.00
2017-06-26T04:31:03.477Z,82.80
2017-06-26T04:33:31.612Z,82.90
2017-06-26T04:35:59.594Z,83.00
2017-06-26T04:38:27.129Z,83.00
2017-06-26T04:40:54.667Z,83.00
2017-06-26T04:43:22.222Z,83.30
2017-06-26T04:45:49.744Z,83.20
2017-06-26T04:48:17.297Z,83.20
2017-06-26T04:50:44.831Z,83.40
2017-06-26T04:53:12.782Z,83.00
2017-06-26T04:55:40.325Z,83.00
2017-06-26T04:58:07.872Z,83.10
2017-06-26T05:00:35.405Z,83.10
2017-06-26T05:03:02.935Z,83.40
2017-06-26T05:05:30.636Z,83.30
2017-06-26T05:07:58.175Z,83.10
2017-06-26T05:10:25.742Z,83.20
2017-06-26T05:12:53.278Z,83.60
2017-06-26T05:15:21.228Z,83.50
2017-06-26T05:17:49.161Z,83.50
2017-06-26T05:20:16.711Z,83.50
2017-06-26T05:22:44.244Z,83.70
2017-06-26T05:25:11.775Z,83.70
2017-06-26T05:27:39.331Z,83.90
2017-06-26T05:30:06.873Z,83.70
2017-06-26T05:32:34.422Z,83.90
2017-06-26T05:35:01.952Z,83.80
2017-06-26T05:37:30.621Z,84.00
2017-06-26T05:39:58.153Z,83.80
2017-06-26T05:42:25.727Z,83.70
2017-06-26T05:44:53.262Z,84.00
2017-06-26T05:47:20.792Z,83.50
2017-06-26T05:50:01.079Z,83.50
2017-06-26T05:52:28.674Z,83.50
2017-06-26T05:54:56.231Z,83.70
2017-06-26T05:57:23.778Z,83.70
2017-06-26T05:59:51.317Z,83.70
2017-06-26T06:02:19.247Z,83.60
2017-06-26T06:04:46.821Z,83.60
2017-06-26T06:07:14.352Z,83.60
2017-06-26T06:09:41.902Z,83.80
2017-06-26T06:12:09.463Z,84.20
2017-06-26T06:14:37.017Z,83.90
2017-06-26T06:17:04.569Z,83.50
2017-06-26T06:19:32.108Z,83.90
2017-06-26T06:21:59.689Z,83.80
2017-06-26T06:24:27.233Z,83.90
2017-06-26T06:26:54.805Z,83.90
2017-06-26T06:29:22.348Z,83.80
2017-06-26T06:31:49.915Z,83.90
2017-06-26T06:34:17.481Z,83.90
2017-06-26T06:36:45.021Z,83.20
2017-06-26T06:39:12.568Z,83.10
2017-06-26T06:41:40.141Z,83.00
2017-06-26T06:44:07.706Z,83.50
2017-06-26T06:46:35.250Z,83.70
2017-06-26T06:49:02.819Z,83.30
2017-06-26T06:51:30.842Z,83.60
2017-06-26T06:53:58.402Z,83.30
2017-06-26T06:56:25.976Z,82.90
2017-06-26T06:58:53.507Z,83.50
2017-06-26T07:01:21.047Z,83.00
2017-06-26T07:03:48.577Z,83.60
2017-06-26T07:06:16.133Z,83.80
2017-06-26T07:08:43.670Z,83.20
2017-06-26T07:11:11.653Z,83.30
2017-06-26T07:13:39.187Z,83.30
2017-06-26T07:16:06.721Z,83.10
2017-06-26T07:18:35.267Z,82.90
2017-06-26T07:21:02.791Z,83.10
2017-06-26T07:23:30.941Z,83.00
2017-06-26T07:25:58.491Z,82.80
2017-06-26T07:28:26.061Z,82.70
2017-06-26T07:30:53.616Z,83.00
2017-06-26T07:33:21.195Z,82.90
2017-06-26T07:35:48.737Z,82.80
2017-06-26T07:38:16.335Z,82.60
2017-06-26T07:40:44.281Z,82.70
2017-06-26T07:43:12.221Z,82.90
2017-06-26T07:45:39.781Z,82.90
2017-06-26T07:48:07.300Z,82.50
2017-06-26T07:50:34.867Z,82.90
2017-06-26T07:53:02.406Z,82.70
2017-06-26T07:55:31.042Z,82.70
2017-06-26T07:57:58.674Z,83.00
2017-06-26T08:00:26.224Z,83.30
2017-06-26T08:02:53.778Z,83.00
2017-06-26T08:05:21.347Z,84.40
2017-06-26T08:07:48.929Z,84.60
2017-06-26T08:10:16.477Z,85.10
2017-06-26T08:12:44.034Z,85.80
2017-06-26T08:15:11.573Z,85.60
2017-06-26T08:17:39.136Z,86.40
2017-06-26T08:20:06.711Z,86.70
2017-06-26T08:22:34.254Z,87.20
2017-06-26T08:25:01.811Z,87.70
2017-06-26T08:27:30.841Z,88.00
2017-06-26T08:29:58.392Z,88.10
2017-06-26T08:32:25.941Z,88.10
2017-06-26T08:34:53.494Z,88.60
2017-06-26T08:37:21.035Z,87.90
2017-06-26T08:39:48.611Z,88.30
2017-06-26T08:42:16.162Z,89.20
2017-06-26T08:44:43.703Z,90.60
2017-06-26T08:47:11.275Z,89.90
2017-06-26T08:49:38.796Z,88.00
2017-06-26T08:52:06.398Z,84.90
2017-06-26T08:54:33.932Z,84.60
2017-06-26T08:57:01.504Z,83.30
2017-06-26T08:59:29.035Z,84.80
2017-06-26T09:01:57.025Z,85.70
2017-06-26T09:04:24.659Z,85.70
2017-06-26T09:06:52.601Z,85.10
2017-06-26T09:09:20.157Z,85.00
2017-06-26T09:11:47.704Z,84.40
2017-06-26T09:14:15.250Z,84.50
2017-06-26T09:16:42.785Z,84.80
2017-06-26T09:19:10.353Z,84.90
2017-06-26T09:21:37.899Z,85.10
2017-06-26T09:24:05.494Z,84.70
2017-06-26T09:26:33.035Z,82.90
2017-06-26T09:29:00.560Z,83.00
2017-06-26T09:31:28.140Z,83.70
2017-06-26T09:33:55.697Z,82.70
2017-06-26T09:36:23.305Z,82.30
2017-06-26T09:38:50.859Z,81.20
2017-06-26T09:41:18.432Z,78.80
2017-06-26T09:43:45.983Z,77.70
2017-06-26T09:46:13.525Z,76.80
2017-06-26T09:48:41.091Z,78.00
2017-06-26T09:51:08.667Z,76.30
2017-06-26T09:53:36.249Z,76.60
2017-06-26T09:56:03.818Z,76.00
2017-06-26T09:58:31.366Z,76.70
2017-06-26T10:00:59.321Z,76.80
2017-06-26T10:03:26.851Z,76.70
2017-06-26T10:05:54.411Z,74.60
2017-06-26T10:08:21.956Z,74.70
2017-06-26T10:10:49.529Z,73.00
2017-06-26T10:13:17.086Z,72.00
2017-06-26T10:15:44.671Z,70.80
2017-06-26T10:18:12.276Z,70.00
2017-06-26T10:20:39.837Z,71.30
2017-06-26T10:23:07.399Z,70.20
2017-06-26T10:25:34.951Z,69.30
2017-06-26T10:28:02.513Z,68.50
2017-06-26T10:30:30.805Z,68.20
2017-06-26T10:32:58.384Z,66.50
2017-06-26T10:35:25.931Z,66.80
2017-06-26T10:37:53.466Z,67.20
2017-06-26T10:40:21.025Z,68.70
2017-06-26T10:42:48.612Z,68.70
2017-06-26T10:45:16.194Z,70.30
2017-06-26T10:47:43.728Z,70.20
2017-06-26T10:50:11.370Z,70.40
2017-06-26T10:52:38.919Z,71.40
2017-06-26T10:55:06.489Z,70.70
2017-06-26T10:57:34.032Z,71.40
2017-06-26T11:00:01.588Z,72.00
2017-06-26T11:02:29.139Z,72.60
2017-06-26T11:04:56.778Z,73.00
2017-06-26T11:07:24.345Z,73.10
2017-06-26T11:09:51.889Z,73.30
2017-06-26T11:12:19.854Z,72.60
2017-06-26T11:14:48.253Z,73.00
2017-06-26T11:17:15.831Z,73.00
2017-06-26T11:19:43.402Z,73.30
2017-06-26T11:22:10.979Z,73.60
2017-06-26T11:24:38.554Z,73.30
2017-06-26T11:27:06.085Z,73.00
2017-06-26T11:29:33.686Z,72.30
2017-06-26T11:32:01.707Z,72.30
2017-06-26T11:34:29.777Z,72.30
2017-06-26T11:36:57.355Z,72.30
2017-06-26T11:39:24.934Z,71.80
2017-06-26T11:41:52.939Z,72.00
2017-06-26T11:44:20.511Z,71.80
2017-06-26T11:46:48.076Z,72.70
2017-06-26T11:49:16.843Z,72.50
2017-06-26T11:51:44.453Z,71.80
2017-06-26T11:54:12.048Z,71.80
2017-06-26T11:56:39.605Z,70.50
2017-06-26T11:59:07.155Z,71.30
2017-06-26T12:01:35.152Z,71.10
2017-06-26T12:04:02.769Z,71.10
2017-06-26T12:06:30.901Z,68.50
2017-06-26T12:08:58.523Z,69.50
2017-06-26T12:11:26.552Z,67.90
2017-06-26T12:13:54.089Z,67.90
2017-06-26T12:16:21.645Z,68.20
2017-06-26T12:18:49.372Z,68.10
2017-06-26T12:21:16.949Z,68.40
2017-06-26T12:23:44.489Z,68.90
2017-06-26T12:26:12.054Z,68.90
2017-06-26T12:28:39.624Z,69.90
2017-06-26T12:31:07.166Z,68.40
2017-06-26T12:33:34.725Z,68.80
2017-06-26T12:36:02.350Z,69.50
2017-06-26T12:38:29.945Z,70.50
2017-06-26T12:40:57.485Z,68.50
2017-06-26T12:43:25.045Z,68.20
2017-06-26T12:45:52.980Z,69.30
2017-06-26T12:48:20.521Z,69.30
2017-06-26T12:50:48.098Z,68.70
2017-06-26T12:53:15.654Z,67.50
2017-06-26T12:55:43.214Z,66.90
2017-06-26T12:58:10.748Z,68.50
2017-06-26T13:00:38.331Z,67.10
2017-06-26T13:03:05.878Z,64.50
2017-06-26T13:05:33.443Z,63.90
2017-06-26T13:08:00.994Z,64.60
2017-06-26T13:10:30.567Z,62.50
2017-06-26T13:12:58.118Z,61.00
2017-06-26T13:15:25.665Z,61.30
2017-06-26T13:17:53.633Z,62.10
2017-06-26T13:20:21.566Z,60.80
2017-06-26T13:22:49.116Z,60.80
2017-06-26T13:25:16.649Z,61.20
2017-06-26T13:27:44.195Z,61.20
2017-06-26T13:30:11.756Z,61.50
2017-06-26T13:32:39.302Z,61.90
2017-06-26T13:35:06.858Z,60.90
2017-06-26T13:37:34.780Z,60.60
2017-06-26T13:40:02.342Z,60.60
2017-06-26T13:42:30.881Z,61.10
2017-06-26T13:44:58.457Z,62.00
2017-06-26T13:47:26.000Z,60.70
2017-06-26T13:49:53.564Z,60.90
2017-06-26T13:52:21.098Z,60.90
2017-06-26T13:54:48.637Z,61.10
2017-06-26T13:57:16.198Z,60.90
2017-06-26T13:59:44.144Z,59.80
2017-06-26T14:02:11.709Z,59.80
2017-06-26T14:04:39.304Z,59.30
2017-06-26T14:07:06.858Z,60.10
2017-06-26T14:09:34.794Z,61.20
2017-06-26T14:12:02.337Z,61.20
2017-06-26T14:14:30.999Z,60.20
2017-06-26T14:16:58.560Z,61.60
2017-06-26T14:19:26.095Z,60.00
2017-06-26T14:21:53.644Z,60.30
2017-06-26T14:24:21.604Z,60.40
2017-06-26T14:26:49.142Z,60.40
2017-06-26T14:29:16.699Z,60.00
2017-06-26T14:31:44.244Z,58.40
2017-06-26T14:34:11.797Z,58.50
2017-06-26T14:36:39.328Z,59.50
2017-06-26T14:39:06.894Z,59.70
2017-06-26T14:41:34.428Z,59.20
2017-06-26T14:44:01.960Z,59.40
2017-06-26T14:46:29.512Z,59.50
2017-06-26T14:48:57.051Z,59.10
2017-06-26T14:51:24.624Z,60.10
2017-06-26T14:53:52.187Z,60.80
2017-06-26T14:56:19.742Z,59.50
2017-06-26T14:58:47.269Z,59.80
2017-06-26T15:01:14.835Z,60.80
2017-06-26T15:03:42.370Z,59.90
2017-06-26T15:06:09.898Z,57.40
2017-06-26T15:08:37.459Z,58.70
2017-06-26T15:11:04.998Z,57.20
2017-06-26T15:13:32.539Z,57.10
2017-06-26T15:16:00.072Z,57.40
2017-06-26T15:18:27.638Z,56.90
2017-06-26T15:20:55.173Z,57.00
2017-06-26T15:23:22.763Z,55.70
2017-06-26T15:25:50.299Z,56.20
2017-06-26T15:28:17.830Z,55.40
2017-06-26T15:30:45.800Z,55.30
2017-06-26T15:33:13.350Z,55.30
2017-06-26T15:35:41.276Z,55.40
2017-06-26T15:38:08.804Z,55.40
2017-06-26T15:40:36.355Z,55.00
2017-06-26T15:43:03.888Z,54.90
2017-06-26T15:45:31.826Z,55.70
2017-06-26T15:47:59.408Z,55.60
2017-06-26T15:50:27.326Z,56.70
2017-06-26T15:52:54.883Z,56.70
2017-06-26T15:55:22.415Z,56.70
2017-06-26T15:57:50.002Z,55.60
2017-06-26T16:00:17.537Z,54.40
2017-06-26T16:02:45.214Z,54.50
2017-06-26T16:05:12.777Z,54.20
2017-06-26T16:07:41.065Z,54.50
2017-06-26T16:10:10.128Z,55.40
2017-06-26T16:12:38.537Z,56.10
2017-06-26T16:15:06.172Z,54.40
2017-06-26T16:17:33.814Z,55.80
2017-06-26T16:20:01.350Z,54.50
2017-06-26T16:22:28.947Z,53.70
2017-06-26T16:24:57.789Z,54.00
2017-06-26T16:27:25.345Z,54.00
2017-06-26T16:29:52.903Z,54.80
2017-06-26T16:32:20.449Z,56.70
2017-06-26T16:34:48.560Z,55.00
2017-06-26T16:37:16.134Z,55.30
2017-06-26T16:39:43.673Z,54.10
2017-06-26T16:42:11.226Z,54.30
2017-06-26T16:44:39.169Z,53.70
2017-06-26T16:47:06.723Z,53.80
2017-06-26T16:49:34.283Z,53.70
2017-06-26T16:52:01.881Z,54.70
2017-06-26T16:54:30.006Z,53.60
2017-06-26T16:56:57.551Z,53.60
2017-06-26T16:59:25.106Z,52.50
2017-06-26T17:01:52.635Z,53.30
2017-06-26T17:04:20.998Z,53.90
2017-06-26T17:06:48.606Z,53.10
2017-06-26T17:09:16.152Z,54.20
2017-06-26T17:11:43.691Z,54.00
2017-06-26T17:14:11.237Z,55.20
2017-06-26T17:16:39.174Z,54.50
2017-06-26T17:19:06.704Z,54.50
2017-06-26T17:21:34.285Z,54.90
2017-06-26T17:24:01.819Z,54.70
2017-06-26T17:29:03.385Z,54.10
2017-06-26T17:31:32.178Z,53.60
2017-06-26T17:33:59.732Z,53.70
2017-06-26T17:36:27.270Z,53.50
2017-06-26T17:38:54.820Z,53.10
2017-06-26T17:41:22.361Z,54.00
2017-06-26T17:43:49.937Z,53.30
2017-06-26T17:46:17.461Z,53.50
2017-06-26T17:48:44.980Z,53.60
2017-06-26T17:51:12.524Z,53.00
2017-06-26T17:53:40.057Z,53.00
2017-06-26T17:56:08.051Z,53.60
2017-06-26T17:58:35.576Z,53.60
2017-06-26T18:01:03.543Z,54.00
2017-06-26T18:03:31.480Z,53.50
2017-06-26T18:05:59.053Z,53.50
2017-06-26T18:08:26.615Z,53.70
2017-06-26T18:10:54.142Z,53.90
2017-06-26T18:13:21.682Z,54.20
2017-06-26T18:15:49.218Z,53.70
2017-06-26T18:18:17.177Z,54.30
2017-06-26T18:20:44.751Z,54.30
2017-06-26T18:23:12.286Z,53.80
2017-06-26T18:25:40.229Z,54.60
2017-06-26T18:28:07.813Z,54.60
2017-06-26T18:30:35.775Z,53.70
2017-06-26T18:33:03.331Z,53.80
2017-06-26T18:35:30.880Z,54.20
2017-06-26T18:37:58.570Z,54.10
2017-06-26T18:40:26.561Z,53.70
2017-06-26T18:42:54.209Z,53.80
2017-06-26T18:45:21.839Z,54.00
2017-06-26T18:47:49.444Z,53.80
2017-06-26T18:50:17.251Z,54.00
2017-06-26T18:52:44.875Z,55.30
2017-06-26T18:55:12.501Z,55.40
2017-06-26T18:57:40.430Z,55.90
2017-06-26T19:00:08.004Z,55.90
2017-06-26T19:02:35.596Z,55.30
2017-06-26T19:05:03.769Z,56.60
2017-06-26T19:07:31.689Z,56.90
2017-06-26T19:09:59.738Z,56.90
2017-06-26T19:12:27.288Z,57.40
2017-06-26T19:14:54.927Z,57.10
2017-06-26T19:17:22.453Z,57.20
2017-06-26T19:19:50.088Z,58.50
2017-06-26T19:22:17.647Z,59.10
2017-06-26T19:24:45.248Z,58.00
2017-06-26T19:27:12.795Z,58.50
2017-06-26T19:29:40.438Z,58.80
2017-06-26T19:32:07.984Z,59.60
2017-06-26T19:34:35.659Z,59.10
2017-06-26T19:37:03.220Z,58.90
2017-06-26T19:39:31.802Z,59.40
2017-06-26T19:41:59.642Z,60.10
2017-06-26T19:44:27.275Z,61.70
2017-06-26T19:46:54.893Z,61.20
2017-06-26T19:49:22.529Z,62.20
2017-06-26T19:51:50.075Z,62.50
2017-06-26T19:54:17.632Z,62.30
2017-06-26T19:56:45.201Z,63.10
2017-06-26T19:59:12.861Z,62.80
2017-06-26T20:01:40.409Z,63.10
2017-06-26T20:04:08.140Z,63.70
2017-06-26T20:06:35.684Z,63.70
2017-06-26T20:09:03.962Z,64.60
2017-06-26T20:11:31.914Z,64.70
2017-06-26T20:13:59.455Z,64.70
2017-06-26T20:16:27.088Z,64.40
2017-06-26T20:18:54.677Z,64.90
2017-06-26T20:21:22.310Z,64.10
2017-06-26T20:23:49.972Z,63.90
2017-06-26T20:26:17.622Z,63.50
2017-06-26T20:28:45.258Z,64.40
2017-06-26T20:31:13.377Z,64.40
2017-06-26T20:33:40.913Z,64.40
2017-06-26T20:36:08.556Z,64.30
2017-06-26T20:38:36.083Z,64.80
2017-06-26T20:41:05.688Z,64.40
2017-06-26T20:43:33.231Z,64.60
2017-06-26T20:46:00.820Z,65.10
2017-06-26T20:48:28.358Z,65.00
2017-06-26T20:50:55.902Z,65.50
2017-06-26T20:53:23.524Z,65.70
2017-06-26T20:55:51.072Z,65.60
2017-06-26T20:58:18.627Z,65.80
2017-06-26T21:00:46.206Z,66.00
2017-06-26T21:03:13.753Z,65.70
2017-06-26T21:05:41.328Z,65.20
2017-06-26T21:08:08.882Z,64.20
2017-06-26T21:10:36.412Z,62.80
2017-06-26T21:13:04.339Z,61.50
2017-06-26T21:15:31.924Z,61.50
2017-06-26T21:17:59.470Z,61.40
2017-06-26T21:20:27.038Z,61.30
2017-06-26T21:22:54.589Z,61.30
2017-06-26T21:25:22.175Z,61.30
2017-06-26T21:27:50.095Z,61.60
2017-06-26T21:30:17.660Z,61.60
2017-06-26T21:32:45.206Z,61.80
2017-06-26T21:35:12.742Z,61.80
2017-06-26T21:37:40.392Z,62.00
2017-06-26T21:40:07.945Z,62.20
2017-06-26T21:42:35.496Z,62.40
2017-06-26T21:45:03.042Z,62.60
2017-06-26T21:47:30.602Z,62.80
2017-06-26T21:49:58.557Z,63.00
2017-06-26T21:52:26.135Z,63.00
2017-06-26T21:54:53.672Z,63.00
2017-06-26T21:57:21.257Z,63.20
2017-06-26T21:59:48.809Z,63.50
2017-06-26T22:02:16.345Z,63.60
2017-06-26T22:04:43.893Z,63.90
2017-06-26T22:07:11.417Z,64.00
2017-06-26T22:09:38.969Z,64.20
2017-06-26T22:12:06.504Z,64.10
2017-06-26T22:14:34.058Z,65.00
2017-06-26T22:17:01.597Z,64.40
2017-06-26T22:19:29.642Z,64.40
2017-06-26T22:21:57.192Z,64.50
2017-06-26T22:24:24.729Z,65.00
2017-06-26T22:26:52.292Z,64.80
2017-06-26T22:29:19.833Z,64.80
2017-06-26T22:31:47.401Z,65.10
2017-06-26T22:34:14.930Z,65.10
2017-06-26T22:36:42.487Z,65.30
2017-06-26T22:39:10.035Z,65.30
2017-06-26T22:41:37.575Z,65.40
2017-06-26T22:44:05.121Z,65.20
2017-06-26T22:46:32.639Z,65.40
2017-06-26T22:49:00.221Z,65.50
2017-06-26T22:51:27.814Z,65.60
2017-06-26T22:53:55.427Z,65.70
2017-06-26T22:56:22.975Z,65.90
2017-06-26T22:58:50.526Z,65.90
2017-06-26T23:01:18.457Z,65.80
2017-06-26T23:03:45.993Z,65.80
2017-06-26T23:06:13.553Z,66.10
2017-06-26T23:08:41.084Z,65.90
2017-06-26T23:11:08.650Z,66.10
2017-06-26T23:13:36.184Z,66.10
2017-06-26T23:16:03.749Z,66.20
2017-06-26T23:18:31.295Z,66.20
2017-06-26T23:20:59.263Z,66.40
2017-06-26T23:23:26.815Z,66.40
2017-06-26T23:25:54.757Z,66.40
2017-06-26T23:28:22.311Z,66.40
2017-06-26T23:30:49.839Z,66.40
2017-06-26T23:33:17.417Z,66.50
2017-06-26T23:35:44.945Z,66.80
2017-06-26T23:38:12.497Z,66.70
2017-06-26T23:40:40.026Z,66.70
2017-06-26T23:43:07.594Z,67.00
2017-06-26T23:45:35.120Z,67.10
2017-06-26T23:48:02.672Z,67.20
2017-06-26T23:50:30.229Z,67.30
2017-06-26T23:52:57.755Z,67.60
2017-06-26T23:55:25.324Z,67.80
2017-06-26T23:57:52.865Z,67.90
